Time;durP1;ratioP1;P1;durP2;ratioP2;P2;SDS_P1;SDS_P2;PMS_P1;PMS_P2;Temp;Humidity;BMP_temperature;BMP_pressure;BME280_temperature;BME280_humidity;BME280_pressure;Samples;Min_cycle;Max_cycle;Signal;HPM_P1;HPM_P2
2022/04/28 00:01:38;;;;;;;;;;;9.60;99.90;;;;;;5085369;28;20366;-69
2022/04/28 00:04:03;;;;;;;;;;;9.50;99.90;;;;;;5086859;28;19908;-68
2022/04/28 00:06:29;;;;;;;;;;;9.60;99.90;;;;;;5085312;28;19912;-69
2022/04/28 00:08:54;;;;;;;;;;;9.60;99.90;;;;;;5087184;28;19919;-71
2022/04/28 00:11:20;;;;;;;;;;;9.60;99.90;;;;;;5087138;28;19912;-65
2022/04/28 00:13:45;;;;;;;;;;;9.70;99.90;;;;;;5083022;28;19912;-67
2022/04/28 00:16:10;;;;;;;;;;;9.70;99.90;;;;;;5083050;28;19993;-68
2022/04/28 00:18:36;;;;;;;;;;;9.80;99.90;;;;;;5084765;28;19959;-65
2022/04/28 00:21:01;;;;;;;;;;;9.70;99.90;;;;;;5086683;28;20038;-67
2022/04/28 00:23:27;;;;;;;;;;;9.60;99.90;;;;;;5086462;28;19957;-65
2022/04/28 00:25:52;;;;;;;;;;;9.60;99.90;;;;;;5084323;28;19958;-65
2022/04/28 00:28:20;;;;;;;;;;;9.60;99.90;;;;;;5086203;28;19927;-64
2022/04/28 00:30:46;;;;;;;;;;;9.60;99.90;;;;;;5084706;28;20350;-64
2022/04/28 00:33:11;;;;;;;;;;;9.50;99.90;;;;;;5086387;28;20318;-64
2022/04/28 00:35:38;;;;;;;;;;;9.40;99.90;;;;;;5085210;28;19996;-66
2022/04/28 00:38:04;;;;;;;;;;;9.40;99.90;;;;;;5087023;28;19916;-70
2022/04/28 00:40:29;;;;;;;;;;;9.40;99.90;;;;;;5085588;28;19923;-71
2022/04/28 00:43:18;;;;;;;;;;;9.40;99.90;;;;;;5085946;28;19912;-71
2022/04/28 00:45:40;;;;;;;;;;;9.50;99.90;;;;;;5079530;28;19919;-72
2022/04/28 00:50:50;;;;;;;;;;;9.60;99.90;;;;;;5083970;28;20351;-70
2022/04/28 00:53:15;;;;;;;;;;;9.60;99.90;;;;;;5086603;28;19999;-70
2022/04/28 00:55:41;;;;;;;;;;;9.60;99.90;;;;;;5084981;28;20015;-68
2022/04/28 00:58:07;;;;;;;;;;;9.60;99.90;;;;;;5086583;28;20007;-69
2022/04/28 01:00:33;;;;;;;;;;;9.70;99.90;;;;;;5084681;28;20011;-70
2022/04/28 01:02:58;;;;;;;;;;;9.60;99.90;;;;;;5086399;28;19912;-71
2022/04/28 01:05:24;;;;;;;;;;;9.60;99.90;;;;;;5080706;28;19964;-71
2022/04/28 01:07:49;;;;;;;;;;;9.40;99.90;;;;;;5085024;28;19916;-72
2022/04/28 01:10:15;;;;;;;;;;;9.40;99.90;;;;;;5084612;28;20319;-76
2022/04/28 01:12:40;;;;;;;;;;;9.40;99.90;;;;;;5086670;28;20002;-64
2022/04/28 01:15:06;;;;;;;;;;;9.40;99.90;;;;;;5084392;28;19912;-71
2022/04/28 01:17:31;;;;;;;;;;;9.30;99.90;;;;;;5085853;28;19995;-71
2022/04/28 01:19:57;;;;;;;;;;;9.30;99.90;;;;;;5084027;28;19920;-73
2022/04/28 01:22:25;;;;;;;;;;;9.30;99.90;;;;;;5084481;28;20048;-69
2022/04/28 01:24:50;;;;;;;;;;;9.30;99.90;;;;;;5083148;28;19912;-70
2022/04/28 01:27:16;;;;;;;;;;;9.30;99.90;;;;;;5066897;28;20458;-69
2022/04/28 01:29:42;;;;;;;;;;;9.30;99.90;;;;;;5083622;28;19911;-69
2022/04/28 01:32:08;;;;;;;;;;;9.30;99.90;;;;;;5085452;28;19915;-68
2022/04/28 01:34:33;;;;;;;;;;;9.30;99.90;;;;;;5083918;28;19912;-69
2022/04/28 01:36:59;;;;;;;;;;;9.30;99.90;;;;;;5084913;28;19912;-69
2022/04/28 01:39:24;;;;;;;;;;;9.30;99.90;;;;;;5071551;28;19912;-70
2022/04/28 01:41:50;;;;;;;;;;;9.20;99.90;;;;;;5085889;28;20022;-69
2022/04/28 01:44:16;;;;;;;;;;;9.20;99.90;;;;;;5083678;28;19916;-69
2022/04/28 01:46:41;;;;;;;;;;;9.20;99.90;;;;;;5085763;28;19908;-68
2022/04/28 01:49:07;;;;;;;;;;;9.20;99.90;;;;;;5083574;28;20003;-68
2022/04/28 01:57:01;;;;;;;;;;;9.10;99.90;;;;;;5085541;28;19942;-68
2022/04/28 01:59:27;;;;;;;;;;;9.10;99.90;;;;;;5083261;28;19912;-68
2022/04/28 02:01:52;;;;;;;;;;;9.00;99.90;;;;;;5085479;28;19908;-68
2022/04/28 02:04:19;;;;;;;;;;;9.00;99.90;;;;;;5083549;28;19908;-68
2022/04/28 02:06:44;;;;;;;;;;;9.00;99.90;;;;;;5086039;28;20030;-68
2022/04/28 02:09:10;;;;;;;;;;;9.00;99.90;;;;;;5083107;28;20015;-68
2022/04/28 02:11:36;;;;;;;;;;;9.00;99.90;;;;;;5084985;28;20625;-69
2022/04/28 02:14:01;;;;;;;;;;;8.90;99.90;;;;;;5083331;28;19911;-67
2022/04/28 02:16:27;;;;;;;;;;;8.90;99.90;;;;;;5084847;28;19912;-68
2022/04/28 02:18:52;;;;;;;;;;;8.90;99.90;;;;;;5083340;28;19916;-68
2022/04/28 02:21:18;;;;;;;;;;;8.80;99.90;;;;;;5085392;28;20312;-68
2022/04/28 02:23:43;;;;;;;;;;;8.90;99.90;;;;;;5083136;28;19915;-68
2022/04/28 02:26:09;;;;;;;;;;;8.90;99.90;;;;;;5085300;28;19912;-68
2022/04/28 02:28:34;;;;;;;;;;;8.80;99.90;;;;;;5082837;28;19920;-67
2022/04/28 02:30:59;;;;;;;;;;;8.80;99.90;;;;;;5085663;28;19912;-68
2022/04/28 02:33:25;;;;;;;;;;;8.70;99.90;;;;;;5078066;28;20082;-68
2022/04/28 02:35:50;;;;;;;;;;;8.70;99.90;;;;;;5085057;28;20659;-68
2022/04/28 02:38:16;;;;;;;;;;;8.70;99.90;;;;;;5082374;28;19923;-68
2022/04/28 02:40:41;;;;;;;;;;;8.60;99.90;;;;;;5085278;28;19919;-68
2022/04/28 02:43:06;;;;;;;;;;;8.60;99.90;;;;;;5083160;28;19916;-68
2022/04/28 02:45:32;;;;;;;;;;;8.60;99.90;;;;;;5084940;28;19916;-67
2022/04/28 02:47:57;;;;;;;;;;;8.60;99.90;;;;;;5082830;28;19965;-66
2022/04/28 02:50:23;;;;;;;;;;;8.50;99.90;;;;;;5084954;28;19916;-67
2022/04/28 02:52:50;;;;;;;;;;;8.40;99.90;;;;;;5083010;28;19912;-69
2022/04/28 02:55:16;;;;;;;;;;;8.50;99.90;;;;;;5085405;28;19919;-63
2022/04/28 02:57:41;;;;;;;;;;;8.30;99.90;;;;;;5064541;28;20281;-69
2022/04/28 03:00:07;;;;;;;;;;;8.30;99.90;;;;;;5076857;28;19922;-68
2022/04/28 03:02:33;;;;;;;;;;;8.30;99.90;;;;;;5083008;28;19919;-70
2022/04/28 03:04:58;;;;;;;;;;;8.30;99.90;;;;;;5085073;28;19912;-70
2022/04/28 03:12:52;;;;;;;;;;;8.10;99.90;;;;;;5083108;28;20385;-69
2022/04/28 03:15:17;;;;;;;;;;;8.10;99.90;;;;;;5084241;28;20030;-70
2022/04/28 03:17:43;;;;;;;;;;;8.10;99.90;;;;;;5082440;28;20049;-70
2022/04/28 03:20:09;;;;;;;;;;;8.10;99.90;;;;;;5066104;28;19908;-70
2022/04/28 03:22:36;;;;;;;;;;;8.10;99.90;;;;;;5082306;28;20506;-70
2022/04/28 03:25:05;;;;;;;;;;;8.00;99.90;;;;;;5084755;28;19908;-69
2022/04/28 03:27:33;;;;;;;;;;;8.00;99.90;;;;;;5082169;28;20378;-69
2022/04/28 03:29:58;;;;;;;;;;;8.00;99.90;;;;;;5084366;28;19953;-69
2022/04/28 03:32:24;;;;;;;;;;;8.00;99.90;;;;;;5082703;28;20122;-69
2022/04/28 03:34:49;;;;;;;;;;;8.00;99.90;;;;;;5084535;28;20254;-69
2022/04/28 03:37:15;;;;;;;;;;;8.00;99.90;;;;;;5082133;28;19923;-69
2022/04/28 03:39:40;;;;;;;;;;;7.90;99.90;;;;;;5084948;28;19908;-69
2022/04/28 03:42:06;;;;;;;;;;;7.80;99.90;;;;;;5080529;28;19908;-68
2022/04/28 03:44:32;;;;;;;;;;;7.80;99.90;;;;;;5082066;28;19964;-69
2022/04/28 03:46:57;;;;;;;;;;;7.80;99.90;;;;;;5084554;28;20004;-68
2022/04/28 03:49:23;;;;;;;;;;;7.80;99.90;;;;;;5082088;28;19911;-69
2022/04/28 03:51:48;;;;;;;;;;;7.90;99.90;;;;;;5083948;28;19977;-69
2022/04/28 03:54:14;;;;;;;;;;;7.80;99.90;;;;;;5073997;28;20372;-69
2022/04/28 03:56:39;;;;;;;;;;;7.80;99.90;;;;;;5084003;28;20256;-70
2022/04/28 03:59:05;;;;;;;;;;;7.80;99.90;;;;;;5083326;28;20430;-69
2022/04/28 04:01:30;;;;;;;;;;;7.80;99.90;;;;;;5088071;28;19908;-70
2022/04/28 04:03:56;;;;;;;;;;;7.80;99.90;;;;;;5085678;28;19912;-70
2022/04/28 04:06:22;;;;;;;;;;;7.80;99.90;;;;;;5087564;28;20275;-69
2022/04/28 04:08:48;;;;;;;;;;;7.70;99.90;;;;;;5085677;28;19912;-69
2022/04/28 04:11:13;;;;;;;;;;;7.80;99.90;;;;;;5087770;28;20378;-70
2022/04/28 04:13:39;;;;;;;;;;;7.70;99.90;;;;;;5085239;28;19916;-69
2022/04/28 04:16:04;;;;;;;;;;;7.80;99.90;;;;;;5087409;28;19915;-69
2022/04/28 04:18:30;;;;;;;;;;;7.80;99.90;;;;;;5085145;28;19912;-70
2022/04/28 04:20:55;;;;;;;;;;;7.80;99.90;;;;;;5087263;28;19907;-69
2022/04/28 04:23:21;;;;;;;;;;;7.80;99.90;;;;;;5069585;28;19918;-68
2022/04/28 04:25:46;;;;;;;;;;;7.80;99.90;;;;;;5087317;28;19937;-69
2022/04/28 04:28:12;;;;;;;;;;;7.80;99.90;;;;;;5086852;28;19958;-69
2022/04/28 04:33:21;;;;;;;;;;;7.70;99.90;;;;;;5081625;28;19998;-68
2022/04/28 04:35:47;;;;;;;;;;;7.80;99.90;;;;;;5087259;28;19908;-68
2022/04/28 04:38:12;;;;;;;;;;;7.80;99.90;;;;;;5087050;28;19939;-68
2022/04/28 04:40:38;;;;;;;;;;;7.90;99.90;;;;;;5084979;28;19919;-68
2022/04/28 04:43:04;;;;;;;;;;;7.90;99.90;;;;;;5086774;28;20354;-69
2022/04/28 04:45:30;;;;;;;;;;;7.90;99.90;;;;;;5085098;28;20105;-69
2022/04/28 04:47:55;;;;;;;;;;;8.00;99.90;;;;;;5080039;28;20018;-68
2022/04/28 04:50:21;;;;;;;;;;;7.90;99.90;;;;;;5084752;28;20339;-69
2022/04/28 04:52:46;;;;;;;;;;;8.00;99.90;;;;;;5087038;28;19954;-69
2022/04/28 04:55:11;;;;;;;;;;;8.10;99.90;;;;;;5071672;28;20428;-69
2022/04/28 04:57:37;;;;;;;;;;;8.00;99.90;;;;;;5086315;28;19949;-69
2022/04/28 05:00:04;;;;;;;;;;;8.00;99.90;;;;;;5084512;28;19915;-70
2022/04/28 05:02:29;;;;;;;;;;;8.10;99.90;;;;;;5086330;28;19915;-69
2022/04/28 05:04:55;;;;;;;;;;;8.20;99.90;;;;;;5078735;28;19957;-70
2022/04/28 05:07:20;;;;;;;;;;;8.10;99.90;;;;;;5086025;28;19911;-69
2022/04/28 05:09:45;;;;;;;;;;;8.00;99.90;;;;;;5084049;28;20014;-69
2022/04/28 05:12:11;;;;;;;;;;;8.00;99.90;;;;;;5085286;28;19912;-69
2022/04/28 05:14:36;;;;;;;;;;;8.20;99.90;;;;;;5084129;28;20332;-68
2022/04/28 05:17:02;;;;;;;;;;;8.30;99.90;;;;;;5085777;28;20351;-68
2022/04/28 05:19:27;;;;;;;;;;;8.40;99.90;;;;;;5084016;28;20323;-69
2022/04/28 05:21:54;;;;;;;;;;;8.60;99.90;;;;;;5075111;28;20358;-70
2022/04/28 05:24:20;;;;;;;;;;;8.80;99.90;;;;;;5084591;28;20011;-71
2022/04/28 05:26:46;;;;;;;;;;;8.90;99.90;;;;;;5086230;28;20657;-71
2022/04/28 05:29:11;;;;;;;;;;;9.00;99.90;;;;;;5084175;28;19920;-70
2022/04/28 05:31:36;;;;;;;;;;;8.90;99.90;;;;;;5086349;28;19904;-76
2022/04/28 05:34:02;;;;;;;;;;;9.20;99.90;;;;;;5084177;28;19911;-75
2022/04/28 05:36:28;;;;;;;;;;;9.40;99.90;;;;;;5086387;28;19915;-65
2022/04/28 05:38:54;;;;;;;;;;;9.60;99.90;;;;;;5083959;28;19912;-70
2022/04/28 05:41:20;;;;;;;;;;;9.70;99.90;;;;;;5086109;28;19960;-69
2022/04/28 05:46:29;;;;;;;;;;;9.80;99.90;;;;;;5086308;28;20266;-68
2022/04/28 05:48:54;;;;;;;;;;;9.80;99.90;;;;;;5084054;28;19912;-68
2022/04/28 05:51:20;;;;;;;;;;;9.80;99.90;;;;;;5085858;28;20485;-68
2022/04/28 05:53:45;;;;;;;;;;;10.00;99.90;;;;;;5084208;28;20056;-68
2022/04/28 05:56:11;;;;;;;;;;;10.10;99.90;;;;;;5086426;28;19952;-68
2022/04/28 05:58:36;;;;;;;;;;;10.10;99.90;;;;;;5083573;28;19980;-68
2022/04/28 06:01:02;;;;;;;;;;;10.20;99.90;;;;;;5085941;28;19929;-68
2022/04/28 06:03:27;;;;;;;;;;;10.20;99.90;;;;;;5083483;28;19915;-68
2022/04/28 06:05:53;;;;;;;;;;;10.30;99.90;;;;;;5085822;28;19907;-68
2022/04/28 06:08:18;;;;;;;;;;;10.40;99.90;;;;;;5084191;28;19912;-69
2022/04/28 06:10:44;;;;;;;;;;;10.40;99.90;;;;;;5076716;28;19912;-68
2022/04/28 06:13:10;;;;;;;;;;;10.60;99.90;;;;;;5085064;28;20449;-69
2022/04/28 06:15:35;;;;;;;;;;;10.70;99.90;;;;;;5082672;28;20060;-68
2022/04/28 06:18:01;;;;;;;;;;;10.90;99.90;;;;;;5085005;28;20019;-68
2022/04/28 06:20:26;;;;;;;;;;;10.90;99.90;;;;;;5083223;28;19912;-68
2022/04/28 06:22:51;;;;;;;;;;;11.00;99.90;;;;;;5069389;28;19918;-68
2022/04/28 06:25:17;;;;;;;;;;;11.00;99.90;;;;;;5086625;28;19919;-68
2022/04/28 06:27:42;;;;;;;;;;;11.10;99.90;;;;;;5085623;28;19919;-68
2022/04/28 06:30:08;;;;;;;;;;;10.90;99.90;;;;;;5083501;28;19912;-68
2022/04/28 06:32:33;;;;;;;;;;;11.10;99.90;;;;;;5071151;28;20281;-68
2022/04/28 06:34:59;;;;;;;;;;;11.20;99.90;;;;;;5083310;28;20117;-68
2022/04/28 06:37:24;;;;;;;;;;;11.30;99.90;;;;;;5084815;28;20002;-68
2022/04/28 06:39:50;;;;;;;;;;;11.40;99.90;;;;;;5083354;28;19912;-68
2022/04/28 06:42:15;;;;;;;;;;;11.40;99.90;;;;;;5085419;28;19912;-68
2022/04/28 06:44:41;;;;;;;;;;;11.40;99.90;;;;;;5083228;28;19951;-69
2022/04/28 06:47:06;;;;;;;;;;;11.50;99.90;;;;;;5084907;28;19923;-70
2022/04/28 06:49:33;;;;;;;;;;;11.50;99.90;;;;;;5082925;28;19911;-71
2022/04/28 06:51:59;;;;;;;;;;;11.60;99.90;;;;;;5085117;28;19912;-70
2022/04/28 06:54:24;;;;;;;;;;;11.80;99.90;;;;;;5072460;28;19951;-70
2022/04/28 06:56:50;;;;;;;;;;;11.90;99.90;;;;;;5084672;28;20023;-71
2022/04/28 06:59:15;;;;;;;;;;;12.00;99.90;;;;;;5082998;28;19912;-70
2022/04/28 07:01:41;;;;;;;;;;;12.20;99.90;;;;;;5084742;28;20380;-71
2022/04/28 07:04:06;;;;;;;;;;;12.40;99.90;;;;;;5082965;28;19919;-70
2022/04/28 07:06:31;;;;;;;;;;;12.40;99.90;;;;;;5084574;28;19908;-70
2022/04/28 07:08:57;;;;;;;;;;;12.30;99.90;;;;;;5082926;28;19912;-71
2022/04/28 07:11:24;;;;;;;;;;;12.50;99.90;;;;;;5084900;28;19908;-71
2022/04/28 07:13:49;;;;;;;;;;;12.50;99.90;;;;;;5081942;28;20263;-70
2022/04/28 07:16:15;;;;;;;;;;;12.60;99.90;;;;;;5065777;28;19919;-71
2022/04/28 07:18:40;;;;;;;;;;;12.70;99.90;;;;;;5082890;28;19923;-70
2022/04/28 07:21:06;;;;;;;;;;;12.80;99.90;;;;;;5084774;28;19988;-71
2022/04/28 07:23:31;;;;;;;;;;;13.10;99.50;;;;;;5082581;28;19989;-71
2022/04/28 07:25:57;;;;;;;;;;;13.20;99.00;;;;;;5084783;28;20427;-69
2022/04/28 07:28:23;;;;;;;;;;;13.30;98.40;;;;;;5082798;28;19920;-69
2022/04/28 07:30:48;;;;;;;;;;;13.30;98.20;;;;;;5084852;28;19931;-68
2022/04/28 07:33:14;;;;;;;;;;;13.30;98.20;;;;;;5085058;28;20611;-69
2022/04/28 07:35:39;;;;;;;;;;;13.40;97.70;;;;;;5086300;28;19935;-69
2022/04/28 07:38:05;;;;;;;;;;;13.40;97.70;;;;;;5088806;28;19922;-68
2022/04/28 07:40:31;;;;;;;;;;;13.60;97.50;;;;;;5086553;28;19916;-68
2022/04/28 07:42:57;;;;;;;;;;;13.60;97.30;;;;;;5088286;28;20354;-68
2022/04/28 07:45:22;;;;;;;;;;;13.60;97.30;;;;;;5084048;28;19977;-70
2022/04/28 07:47:49;;;;;;;;;;;13.40;97.20;;;;;;5084886;28;19912;-71
2022/04/28 07:50:14;;;;;;;;;;;13.30;96.80;;;;;;5086648;28;20052;-73
2022/04/28 07:52:40;;;;;;;;;;;13.30;97.20;;;;;;5087804;28;20342;-71
2022/04/28 07:55:06;;;;;;;;;;;13.40;97.20;;;;;;5086703;28;20627;-72
2022/04/28 07:57:32;;;;;;;;;;;13.40;96.70;;;;;;5077923;28;19923;-72
2022/04/28 07:59:58;;;;;;;;;;;13.20;96.70;;;;;;5086424;28;19918;-71
2022/04/28 08:02:23;;;;;;;;;;;13.30;96.80;;;;;;5084851;28;19912;-71
2022/04/28 08:04:49;;;;;;;;;;;13.40;96.50;;;;;;5079435;28;20023;-70
2022/04/28 08:07:14;;;;;;;;;;;13.60;96.40;;;;;;5079876;28;19911;-71
2022/04/28 08:09:40;;;;;;;;;;;13.60;96.30;;;;;;5077532;28;19915;-71
2022/04/28 08:12:06;;;;;;;;;;;13.60;96.50;;;;;;5087731;28;19973;-70
2022/04/28 08:14:32;;;;;;;;;;;13.60;96.80;;;;;;5085279;28;20022;-71
2022/04/28 08:16:58;;;;;;;;;;;13.40;96.30;;;;;;5087084;28;19908;-70
2022/04/28 08:19:23;;;;;;;;;;;13.50;96.00;;;;;;5085773;28;20405;-70
2022/04/28 08:21:49;;;;;;;;;;;13.70;95.90;;;;;;5087405;28;20585;-71
2022/04/28 08:24:15;;;;;;;;;;;13.70;96.00;;;;;;5085382;28;19912;-71
2022/04/28 08:26:40;;;;;;;;;;;13.70;95.50;;;;;;5082813;28;19987;-70
2022/04/28 08:29:06;;;;;;;;;;;13.60;95.10;;;;;;5085199;28;20186;-71
2022/04/28 08:31:32;;;;;;;;;;;13.50;95.20;;;;;;5087175;28;19994;-71
2022/04/28 08:33:57;;;;;;;;;;;13.50;95.50;;;;;;5085355;28;20426;-70
2022/04/28 08:36:23;;;;;;;;;;;13.70;95.50;;;;;;5087189;28;19908;-70
2022/04/28 08:38:49;;;;;;;;;;;13.80;95.50;;;;;;5085046;28;20023;-71
2022/04/28 08:41:19;;;;;;;;;;;13.80;94.40;;;;;;5087261;28;19934;-71
2022/04/28 08:43:45;;;;;;;;;;;13.80;94.40;;;;;;5085049;28;19919;-71
2022/04/28 08:48:55;;;;;;;;;;;13.80;94.00;;;;;;5082207;28;20004;-70
2022/04/28 08:51:22;;;;;;;;;;;14.00;93.60;;;;;;5087473;28;20417;-69
2022/04/28 08:53:49;;;;;;;;;;;14.10;94.40;;;;;;5085048;28;19912;-69
2022/04/28 08:56:15;;;;;;;;;;;14.10;93.80;;;;;;5087025;28;20003;-69
2022/04/28 08:58:40;;;;;;;;;;;14.20;94.10;;;;;;5084772;28;19973;-69
2022/04/28 09:01:06;;;;;;;;;;;14.40;93.60;;;;;;5086941;28;19912;-69
2022/04/28 09:03:31;;;;;;;;;;;14.40;92.60;;;;;;5070995;28;19919;-68
2022/04/28 09:05:56;;;;;;;;;;;14.50;92.50;;;;;;5087027;28;19914;-69
2022/04/28 09:08:22;;;;;;;;;;;14.60;92.80;;;;;;5085077;28;20024;-68
2022/04/28 09:10:47;;;;;;;;;;;14.60;92.30;;;;;;5086935;28;19911;-69
2022/04/28 09:15:57;;;;;;;;;;;14.60;91.80;;;;;;5079838;28;20282;-68
2022/04/28 09:18:23;;;;;;;;;;;14.90;92.10;;;;;;5084466;28;20007;-70
2022/04/28 09:20:50;;;;;;;;;;;15.10;91.50;;;;;;5086859;28;19947;-70
2022/04/28 09:23:17;;;;;;;8.27;7.15;;;15.00;90.50;;;;;;5085178;28;20889;-70
2022/04/28 09:25:44;;;;;;;7.63;5.83;;;15.20;89.80;;;;;;5084427;28;20295;-70
2022/04/28 09:28:11;;;;;;;8.00;5.60;;;15.40;90.00;;;;;;5085767;28;20229;-70
2022/04/28 09:30:43;;;;;;;7.10;5.80;;;15.20;90.80;;;;;;5084060;28;20205;-70
2022/04/28 09:33:13;;;;;;;8.70;5.70;;;15.40;86.60;;;;;;5084483;28;20563;-70
2022/04/28 09:35:53;;;;;;;9.53;5.50;;;15.70;87.90;;;;;;5083724;28;20687;-70
2022/04/28 09:38:19;;;;;;;10.00;6.27;;;15.70;88.50;;;;;;5085003;28;20734;-71
2022/04/28 09:43:32;;;;;;;5.53;4.97;;;15.80;87.90;;;;;;5073265;28;20712;-71
2022/04/28 09:45:59;;;;;;;7.07;5.37;;;15.90;86.20;;;;;;5085650;28;20272;-70
2022/04/28 09:48:31;;;;;;;7.87;6.57;;;15.80;85.10;;;;;;5081572;28;20203;-70
2022/04/28 09:51:06;;;;;;;9.20;5.10;;;15.60;86.70;;;;;;5081868;28;20246;-71
2022/04/28 09:53:33;;;;;;;7.97;5.80;;;15.50;87.30;;;;;;5083154;28;20216;-71
2022/04/28 09:56:02;;;;;;;8.03;5.50;;;15.30;86.70;;;;;;5085248;28;20189;-71
2022/04/28 09:58:28;;;;;;;8.53;4.60;;;15.10;87.70;;;;;;5082470;28;20206;-70
2022/04/28 10:01:00;;;;;;;6.43;5.40;;;15.50;87.50;;;;;;5085297;28;20220;-71
2022/04/28 10:03:29;;;;;;;10.17;5.10;;;15.60;85.40;;;;;;5076152;28;20185;-70
2022/04/28 10:05:57;;;;;;;8.90;5.13;;;15.80;84.40;;;;;;5085923;28;20595;-72
2022/04/28 10:08:24;;;;;;;6.27;4.90;;;15.70;83.40;;;;;;5083592;28;20189;-70
2022/04/28 10:10:53;;;;;;;8.70;5.57;;;15.80;83.40;;;;;;5085386;28;20182;-69
2022/04/28 10:13:20;;;;;;;10.50;5.27;;;15.80;82.90;;;;;;5084148;28;20189;-71
2022/04/28 10:15:49;;;;;;;10.70;6.27;;;16.10;82.10;;;;;;5083685;28;20173;-71
2022/04/28 10:18:16;;;;;;;8.47;5.13;;;16.20;80.90;;;;;;5084504;28;20214;-71
2022/04/28 10:20:44;;;;;;;5.77;5.30;;;16.20;82.30;;;;;;5082660;28;20213;-72
2022/04/28 10:23:12;;;;;;;12.93;5.60;;;16.10;82.00;;;;;;5083561;28;20196;-67
2022/04/28 10:34:15;;;;;;;5.37;4.87;;;15.90;82.80;;;;;;5080960;28;20216;-67
2022/04/28 10:36:56;;;;;;;6.70;4.50;;;16.00;80.90;;;;;;5084220;28;20189;-68
2022/04/28 10:39:55;;;;;;;6.43;5.33;;;16.20;82.10;;;;;;5082956;28;20246;-68
2022/04/28 10:42:40;;;;;;;5.83;4.90;;;16.40;76.50;;;;;;5053173;28;20194;-71
2022/04/28 10:45:25;;;;;;;7.27;5.20;;;16.40;76.40;;;;;;5070151;28;20177;-84
2022/04/28 10:48:29;;;;;;;5.67;4.23;;;16.20;76.30;;;;;;5070710;28;20205;-82
2022/04/28 10:51:03;;;;;;;8.90;5.10;;;16.10;77.30;;;;;;5079246;28;20211;-78
2022/04/28 10:53:29;;;;;;;8.27;4.77;;;16.40;79.30;;;;;;5083464;28;20219;-81
2022/04/28 10:55:55;;;;;;;5.70;4.80;;;16.80;78.10;;;;;;5070967;28;20198;-77
2022/04/28 10:58:25;;;;;;;6.83;4.90;;;16.60;76.80;;;;;;5075488;28;20209;-80
2022/04/28 11:00:59;;;;;;;6.33;4.80;;;16.90;76.40;;;;;;5085232;28;20191;-78
2022/04/28 11:03:51;;;;;;;6.13;4.80;;;17.00;77.20;;;;;;5080746;28;20198;-81
2022/04/28 11:06:36;;;;;;;7.33;4.90;;;17.60;75.50;;;;;;5087684;28;20721;-83
2022/04/28 11:09:04;;;;;;;5.00;4.30;;;17.70;75.70;;;;;;5087052;28;20213;-82
2022/04/28 11:11:48;;;;;;;7.60;4.93;;;17.80;73.40;;;;;;5091417;28;20194;-79
2022/04/28 11:14:14;;;;;;;8.47;4.27;;;17.80;71.80;;;;;;5093426;28;20208;-84
2022/04/28 11:16:41;;;;;;;5.97;5.37;;;18.80;69.70;;;;;;5094891;28;20663;-77
2022/04/28 11:19:08;;;;;;;5.37;4.47;;;19.40;69.10;;;;;;5087567;28;20279;-80
2022/04/28 11:21:34;;;;;;;5.00;4.53;;;19.40;67.00;;;;;;5088180;28;20288;-78
2022/04/28 11:24:00;;;;;;;5.43;3.80;;;19.20;65.90;;;;;;5083010;28;20751;-77
2022/04/28 11:26:27;;;;;;;5.23;4.43;;;19.10;65.00;;;;;;5082523;28;20216;-79
2022/04/28 11:28:52;;;;;;;6.43;4.70;;;18.50;63.80;;;;;;5086420;28;20232;-82
2022/04/28 11:31:19;;;;;;;5.37;3.73;;;18.80;64.30;;;;;;5070397;28;20196;-81
2022/04/28 11:33:47;;;;;;;7.07;4.30;;;19.40;61.30;;;;;;5087087;28;20232;-79
2022/04/28 11:36:20;;;;;;;5.15;3.67;;;19.90;60.10;;;;;;5083675;28;20220;-81
2022/04/28 11:38:57;;;;;;;4.90;4.17;;;20.40;59.50;;;;;;5080932;28;20244;-76
2022/04/28 11:41:25;;;;;;;7.57;6.18;;;20.50;59.70;;;;;;5087123;28;20326;-74
2022/04/28 11:43:52;;;;;;;4.90;4.20;;;20.30;60.30;;;;;;5085304;28;20276;-69
2022/04/28 11:46:17;;;;;;;6.57;5.88;;;20.40;58.00;;;;;;5087355;28;20294;-69
2022/04/28 11:48:42;;;;;;;7.38;5.28;;;20.20;59.30;;;;;;5085306;28;20662;-69
2022/04/28 11:51:08;;;;;;;4.90;4.32;;;19.60;59.80;;;;;;5087195;28;20330;-69
2022/04/28 11:53:42;;;;;;;5.95;4.95;;;20.10;59.50;;;;;;5085345;28;20602;-69
2022/04/28 11:56:18;;;;;;;9.60;5.43;;;20.30;58.30;;;;;;5086995;28;20980;-69
2022/04/28 11:58:50;;;;;;;6.15;4.63;;;20.00;58.50;;;;;;5078397;28;20217;-69
2022/04/28 12:01:17;;;;;;;7.80;4.50;;;20.40;56.60;;;;;;5078378;28;20184;-69
2022/04/28 12:03:54;;;;;;;7.50;4.85;;;20.80;58.70;;;;;;5085104;28;20883;-69
2022/04/28 12:06:21;;;;;;;5.85;4.30;;;21.10;55.30;;;;;;5079163;28;20192;-68
2022/04/28 12:08:56;;;;;;;5.93;4.53;;;21.50;54.40;;;;;;5085222;28;20293;-69
2022/04/28 12:14:27;;;;;;;8.00;4.63;;;21.70;53.70;;;;;;5083215;28;20793;-71
2022/04/28 12:20:10;;;;;;;5.32;4.82;;;22.30;52.80;;;;;;5086894;28;20705;-67
2022/04/28 12:22:37;;;;;;;6.10;4.80;;;22.40;51.40;;;;;;5069186;28;20233;-81
2022/04/28 12:25:11;;;;;;;8.80;5.35;;;21.80;52.50;;;;;;5087147;28;20174;-71
2022/04/28 12:27:51;;;;;;;9.48;4.70;;;21.90;51.50;;;;;;5077389;28;20226;-74
2022/04/28 12:30:18;;;;;;;8.32;6.10;;;22.10;52.60;;;;;;5084116;28;20185;-69
2022/04/28 12:32:54;;;;;;;7.43;5.95;;;22.90;52.00;;;;;;5083625;28;20207;-74
2022/04/28 12:35:30;;;;;;;11.55;5.47;;;22.10;49.30;;;;;;5086269;28;20410;-73
2022/04/28 12:38:07;;;;;;;6.32;5.20;;;21.50;49.90;;;;;;5083303;28;20575;-69
2022/04/28 12:40:41;;;;;;;5.88;4.60;;;20.50;52.10;;;;;;5084333;28;20228;-75
2022/04/28 12:43:08;;;;;;;9.38;5.47;;;20.20;52.10;;;;;;5083497;28;20189;-70
2022/04/28 12:45:50;;;;;;;6.97;5.20;;;19.70;52.40;;;;;;5086072;28;20558;-68
2022/04/28 12:48:31;;;;;;;7.43;4.83;;;19.80;54.70;;;;;;5083562;28;20205;-69
2022/04/28 12:51:17;;;;;;;9.43;5.70;;;20.50;54.30;;;;;;5084778;28;20184;-66
2022/04/28 12:53:46;;;;;;;8.02;5.57;;;21.50;53.90;;;;;;5081315;28;20655;-73
2022/04/28 12:56:14;;;;;;;9.15;6.75;;;21.90;52.10;;;;;;5085845;28;20222;-72
2022/04/28 12:58:42;;;;;;;8.55;5.45;;;21.50;51.70;;;;;;5083325;28;20209;-69
2022/04/28 13:01:13;;;;;;;6.97;5.00;;;21.30;52.70;;;;;;5085520;28;20243;-69
2022/04/28 13:03:40;;;;;;;6.82;5.07;;;21.70;50.90;;;;;;5083166;28;20289;-68
2022/04/28 13:06:06;;;;;;;6.30;5.40;;;21.30;51.10;;;;;;5086304;28;20216;-69
2022/04/28 13:08:32;;;;;;;8.45;5.32;;;21.80;50.90;;;;;;5083771;28;20208;-69
2022/04/28 13:10:58;;;;;;;7.13;5.20;;;21.90;50.30;;;;;;5085532;28;20187;-69
2022/04/28 13:13:23;;;;;;;9.57;5.57;;;22.00;49.60;;;;;;5083697;28;20204;-70
2022/04/28 13:15:49;;;;;;;10.50;5.53;;;20.90;49.20;;;;;;5086315;28;20193;-68
2022/04/28 13:18:14;;;;;;;7.43;5.27;;;20.30;50.50;;;;;;5081416;28;20295;-68
2022/04/28 13:20:40;;;;;;;62.40;56.73;;;20.30;50.80;;;;;;5085781;28;20618;-73
2022/04/28 13:23:05;;;;;;;28.27;25.47;;;20.10;51.20;;;;;;5081963;28;20200;-73
2022/04/28 13:25:31;;;;;;;8.00;5.30;;;19.80;51.90;;;;;;5085175;28;20184;-67
2022/04/28 13:27:56;;;;;;;12.13;5.53;;;19.60;50.70;;;;;;5083501;28;20767;-69
2022/04/28 13:30:22;;;;;;;56.43;51.40;;;19.40;51.40;;;;;;5085248;28;20643;-67
2022/04/28 13:32:48;;;;;;;6.90;4.93;;;19.60;52.10;;;;;;5079065;28;20236;-73
2022/04/28 13:35:16;;;;;;;10.00;5.07;;;19.70;52.20;;;;;;5086592;28;20539;-70
2022/04/28 13:37:42;;;;;;;5.63;4.37;;;20.60;53.00;;;;;;5083994;28;20220;-71
2022/04/28 13:40:08;;;;;;;6.80;4.23;;;21.30;51.00;;;;;;5085530;28;20193;-70
2022/04/28 13:42:33;;;;;;;8.32;4.30;;;22.30;50.00;;;;;;5083897;28;20201;-72
2022/04/28 13:44:59;;;;;;;7.40;4.00;;;22.90;50.60;;;;;;5086337;28;20618;-72
2022/04/28 13:47:25;;;;;;;6.90;5.40;;;23.10;49.00;;;;;;5065183;28;20268;-71
2022/04/28 13:49:50;;;;;;;4.45;4.10;;;23.40;48.60;;;;;;5085358;28;20213;-68
2022/04/28 13:52:26;;;;;;;6.78;4.32;;;22.30;47.10;;;;;;5061196;28;20553;-68
2022/04/28 13:54:51;;;;;;;3.80;3.50;;;21.40;48.50;;;;;;5063062;28;20190;-69
2022/04/28 13:57:17;;;;;;;8.03;4.00;;;20.60;50.00;;;;;;5058880;28;20190;-70
2022/04/28 13:59:43;;;;;;;7.07;3.60;;;21.50;49.00;;;;;;5065468;28;20238;-70
2022/04/28 14:02:08;;;;;;;4.22;3.60;;;21.80;47.90;;;;;;5060119;28;20706;-68
2022/04/28 14:04:34;;;;;;;7.00;4.15;;;22.10;47.70;;;;;;5066596;28;20190;-68
2022/04/28 14:06:59;;;;;;;7.43;4.93;;;22.40;48.40;;;;;;5061793;28;20201;-70
2022/04/28 14:09:25;;;;;;;4.28;3.65;;;22.80;46.70;;;;;;5072445;28;20285;-70
2022/04/28 14:11:51;;;;;;;3.60;3.30;;;22.10;46.60;;;;;;5061675;28;20214;-70
2022/04/28 14:14:16;;;;;;;7.80;4.23;;;21.30;49.70;;;;;;5065077;28;20222;-68
2022/04/28 14:16:42;;;;;;;4.40;3.95;;;21.90;48.50;;;;;;5069054;28;20201;-69
2022/04/28 14:19:08;;;;;;;5.80;3.22;;;22.80;48.70;;;;;;5079228;28;20178;-69
2022/04/28 14:21:36;;;;;;;4.63;3.67;;;23.40;46.50;;;;;;5064015;28;20214;-68
2022/04/28 14:24:01;;;;;;;4.90;3.67;;;23.50;46.20;;;;;;5065721;28;20543;-68
2022/04/28 14:26:27;;;;;;;5.35;3.90;;;23.30;46.10;;;;;;5065702;28;20209;-69
2022/04/28 14:28:52;;;;;;;6.07;4.10;;;21.80;46.00;;;;;;5079716;28;20685;-68